Time;durP1;ratioP1;P1;durP2;ratioP2;P2;SDS_P1;SDS_P2;PMS_P1;PMS_P2;Temp;Humidity;BMP_temperature;BMP_pressure;BME280_temperature;BME280_humidity;BME280_pressure;Samples;Min_cycle;Max_cycle;Signal;HPM_P1;HPM_P2
2021/09/21 00:02:33;;;;;;;;;29.00;27.00;;;;;17.59;71.36;101776.13;5082761;28;45612;-88
2021/09/21 00:04:58;;;;;;;;;27.25;24.75;;;;;17.49;71.42;101754.78;5084525;27;47558;-88
2021/09/21 00:07:24;;;;;;;;;28.75;25.25;;;;;17.53;71.05;101764.19;5082213;28;45585;-83
2021/09/21 00:09:49;;;;;;;;;28.75;26.00;;;;;17.48;71.69;101765.53;5083618;27;45818;-85
2021/09/21 00:12:15;;;;;;;;;26.50;24.50;;;;;17.50;71.04;101772.38;5084229;27;45707;-86
2021/09/21 00:18:02;;;;;;;;;29.00;26.25;;;;;17.43;71.08;101789.78;5084863;28;45778;-88
2021/09/21 00:20:27;;;;;;;;;27.00;24.75;;;;;17.42;71.89;101795.19;5080551;27;45562;-87
2021/09/21 00:22:53;;;;;;;;;28.75;24.75;;;;;17.36;71.56;101791.22;5080317;28;45734;-87
2021/09/21 00:25:18;;;;;;;;;29.50;29.25;;;;;17.28;71.42;101804.22;5077386;27;45710;-86
2021/09/21 00:27:44;;;;;;;;;27.00;25.50;;;;;17.28;71.08;101796.28;5076722;27;45670;-82
2021/09/21 00:30:11;;;;;;;;;25.25;23.75;;;;;17.27;70.95;101802.56;5076910;28;45890;-84
2021/09/21 00:32:37;;;;;;;;;32.50;30.00;;;;;17.26;71.51;101800.03;5076317;27;47458;-81
2021/09/21 00:35:02;;;;;;;;;28.50;27.50;;;;;17.23;71.37;101795.81;5076189;27;45803;-82
2021/09/21 00:37:28;;;;;;;;;29.75;27.50;;;;;17.21;71.47;101800.41;5074746;28;45671;-85
2021/09/21 00:39:54;;;;;;;;;30.75;26.25;;;;;17.09;71.24;101791.63;5075490;27;45843;-82
2021/09/21 00:42:26;;;;;;;;;29.75;27.00;;;;;17.03;71.04;101783.31;5074359;27;47083;-82
2021/09/21 00:48:13;;;;;;;;;30.00;26.75;;;;;17.06;71.10;101786.56;5066064;28;45784;-85
2021/09/21 00:50:39;;;;;;;;;29.25;28.00;;;;;17.00;70.54;101778.28;5076236;28;45673;-85
2021/09/21 00:53:04;;;;;;;;;24.00;21.25;;;;;16.93;70.62;101782.38;5074978;28;48918;-87
2021/09/21 00:55:30;;;;;;;;;30.00;26.75;;;;;16.99;70.63;101797.78;5074597;28;47426;-90
2021/09/21 00:57:56;;;;;;;;;31.50;29.75;;;;;16.97;70.49;101800.53;5075446;27;45588;-81
2021/09/21 01:00:23;;;;;;;;;32.75;28.75;;;;;16.96;70.87;101792.69;5075464;27;45901;-81
2021/09/21 01:02:49;;;;;;;;;34.25;30.50;;;;;16.87;70.48;101775.75;5075972;27;46610;-83
2021/09/21 01:05:15;;;;;;;;;32.00;28.00;;;;;16.84;71.12;101780.47;5078635;28;46124;-86
2021/09/21 01:07:43;;;;;;;;;29.25;25.25;;;;;16.89;71.05;101800.31;5084128;27;45486;-84
2021/09/21 01:10:11;;;;;;;;;33.00;30.25;;;;;16.87;70.56;101806.66;5084662;27;45562;-82
2021/09/21 01:12:38;;;;;;;;;30.25;27.25;;;;;16.87;70.96;101806.66;5081504;27;46588;-84
2021/09/21 01:18:26;;;;;;;;;30.50;29.75;;;;;16.81;70.96;101818.56;5075760;28;45838;-87
2021/09/21 01:20:52;;;;;;;;;36.50;31.00;;;;;16.81;70.66;101817.75;5077628;27;45883;-85
2021/09/21 01:23:17;;;;;;;;;32.00;29.50;;;;;16.68;70.65;101794.88;5079671;27;45860;-78
2021/09/21 01:25:42;;;;;;;;;33.75;30.75;;;;;16.76;70.90;101810.16;5079271;27;46220;-83
2021/09/21 01:28:08;;;;;;;;;31.75;28.00;;;;;16.74;70.57;101817.38;5082385;27;46062;-84
2021/09/21 01:30:33;;;;;;;;;32.75;29.25;;;;;16.69;70.74;101816.88;5083224;27;45821;-80
2021/09/21 01:33:01;;;;;;;;;33.25;30.75;;;;;16.64;70.57;101816.41;5081650;27;47417;-81
2021/09/21 01:35:26;;;;;;;;;32.25;28.75;;;;;16.64;70.30;101822.53;5083061;27;45739;-81
2021/09/21 01:37:53;;;;;;;;;35.75;31.75;;;;;16.61;70.23;101816.66;5084285;28;45746;-84
2021/09/21 01:40:19;;;;;;;;;35.00;31.00;;;;;16.57;70.76;101823.09;5084795;28;45866;-81
2021/09/21 01:42:46;;;;;;;;;31.50;29.00;;;;;16.55;70.02;101810.00;5083110;27;46385;-82
2021/09/21 01:48:33;;;;;;;;;35.50;32.00;;;;;16.54;70.26;101832.09;5079337;28;45630;-81
2021/09/21 01:51:02;;;;;;;;;36.50;31.75;;;;;16.47;70.80;101816.81;5083095;28;45629;-88
2021/09/21 02:01:20;;;;;;;;;36.75;33.50;;;;;16.38;71.17;101827.16;5082154;27;45701;-86
2021/09/21 02:03:47;;;;;;;;;37.50;28.25;;;;;16.40;70.46;101837.63;5084444;27;47559;-80
2021/09/21 02:06:13;;;;;;;;;36.25;31.25;;;;;16.30;70.43;101828.69;5082477;28;47194;-84
2021/09/21 02:08:39;;;;;;;;;35.25;30.50;;;;;16.37;70.55;101836.03;5077027;28;45684;-84
2021/09/21 02:11:04;;;;;;;;;34.00;31.75;;;;;16.26;70.64;101828.06;5077145;27;45506;-83
2021/09/21 02:13:30;;;;;;;;;32.75;31.00;;;;;16.33;70.21;101842.53;5079182;27;46464;-83
2021/09/21 02:15:57;;;;;;;;;34.25;30.25;;;;;16.31;70.82;101838.28;5077249;27;46345;-84
2021/09/21 02:18:22;;;;;;;;;33.00;31.25;;;;;16.31;70.82;101846.22;5076065;28;45887;-87
2021/09/21 02:20:48;;;;;;;;;36.00;31.75;;;;;16.25;70.26;101841.41;5077206;27;45729;-83
2021/09/21 02:23:14;;;;;;;;;33.00;27.25;;;;;16.10;70.88;101829.31;5076193;27;46504;-89
2021/09/21 02:25:40;;;;;;;;;35.25;32.50;;;;;16.19;70.45;101844.53;5074841;27;46099;-76
2021/09/21 02:28:05;;;;;;;;;36.00;31.00;;;;;16.18;70.66;101846.31;5074468;27;45737;-79
2021/09/21 02:33:52;;;;;;;;;33.00;28.00;;;;;16.16;70.59;101852.66;5073417;28;45705;-83
2021/09/21 02:36:18;;;;;;;;;43.25;37.50;;;;;16.12;70.75;101846.78;5074004;27;45727;-77
2021/09/21 02:38:43;;;;;;;;;43.50;35.50;;;;;16.03;70.32;101841.34;5073424;28;45609;-80
2021/09/21 02:41:09;;;;;;;;;37.50;33.00;;;;;16.09;70.75;101857.56;5073630;27;45836;-83
2021/09/21 02:43:34;;;;;;;;;38.25;32.25;;;;;16.08;70.70;101857.69;5073896;27;46048;-84
2021/09/21 02:49:21;;;;;;;;;40.25;32.00;;;;;16.07;70.66;101850.72;5064522;28;45681;-83
2021/09/21 02:51:47;;;;;;;;;36.50;32.50;;;;;15.98;70.72;101838.19;5073697;28;45675;-81
2021/09/21 02:54:12;;;;;;;;;42.00;34.00;;;;;16.01;70.56;101837.94;5073181;27;47170;-80
2021/09/21 02:56:38;;;;;;;;;40.00;30.50;;;;;15.97;70.54;101841.78;5073582;27;47216;-81
2021/09/21 02:59:03;;;;;;;;;46.25;34.00;;;;;15.93;70.51;101838.50;5072487;28;45798;-78
2021/09/21 03:01:28;;;;;;;;;42.00;34.00;;;;;15.88;70.64;101841.50;5073846;27;45616;-80
2021/09/21 03:03:58;;;;;;;;;37.50;33.25;;;;;15.90;70.74;101841.38;5075639;27;46761;-77
2021/09/21 03:06:31;;;;;;;;;43.75;35.00;;;;;15.90;70.67;101852.81;5076596;28;47153;-78
2021/09/21 03:11:54;;;;;;;;;40.75;33.25;;;;;15.88;70.49;101867.94;5096334;27;45772;-81
2021/09/21 03:19:31;;;;;;;;;44.75;37.00;;;;;15.82;70.80;101867.53;5100410;27;45945;-85
2021/09/21 03:21:57;;;;;;;;;43.25;36.00;;;;;15.81;71.10;101871.16;5099779;27;45880;-87
2021/09/21 03:24:23;;;;;;;;;40.75;33.25;;;;;15.79;70.41;101867.75;5097941;27;46400;-84
2021/09/21 03:26:48;;;;;;;;;39.50;31.25;;;;;15.77;70.70;101873.16;5101266;27;45986;-81
2021/09/21 03:29:14;;;;;;;;;48.25;38.25;;;;;15.74;70.80;101876.03;5101128;27;45737;-78
2021/09/21 03:31:39;;;;;;;;;38.25;33.50;;;;;15.70;71.09;101864.00;5086312;27;45726;-79
2021/09/21 03:34:05;;;;;;;;;46.00;36.25;;;;;15.70;70.95;101871.06;5100051;27;45741;-81
2021/09/21 03:36:30;;;;;;;;;42.00;35.00;;;;;15.73;70.56;101879.63;5097781;27;46943;-80
2021/09/21 03:38:56;;;;;;;;;50.50;37.75;;;;;15.72;70.70;101898.22;5096724;27;45797;-85
2021/09/21 03:41:21;;;;;;;;;52.00;40.00;;;;;15.68;70.71;101894.13;5097296;27;45608;-82
2021/09/21 03:43:47;;;;;;;;;49.25;39.00;;;;;15.62;70.86;101884.81;5098608;27;45596;-88
2021/09/21 03:49:33;;;;;;;;;49.50;38.25;;;;;15.61;71.13;101888.41;5083471;27;45874;-79
2021/09/21 03:51:59;;;;;;;;;44.25;35.25;;;;;15.49;71.11;101861.03;5080855;27;45779;-80
2021/09/21 03:54:24;;;;;;;;;46.25;38.75;;;;;15.56;71.23;101877.34;5081232;27;46370;-81
2021/09/21 03:56:50;;;;;;;;;51.25;38.50;;;;;15.49;71.09;101868.97;5081520;27;46327;-85
2021/09/21 03:59:15;;;;;;;;;48.00;38.25;;;;;15.57;71.18;101883.47;5079897;27;45690;-79
2021/09/21 04:01:41;;;;;;;;;52.50;40.00;;;;;15.47;71.02;101880.63;5079741;27;45722;-78
2021/09/21 04:04:06;;;;;;;;;48.00;40.25;;;;;15.50;70.90;101875.09;5081917;27;46211;-82
2021/09/21 04:06:33;;;;;;;;;49.50;39.50;;;;;15.52;70.87;101889.94;5084274;27;45671;-88
2021/09/21 04:08:59;;;;;;;;;52.75;38.50;;;;;15.52;70.89;101887.28;5083968;27;45570;-84
2021/09/21 04:11:24;;;;;;;;;48.50;39.00;;;;;15.51;70.78;101893.53;5081114;28;45527;-81
2021/09/21 04:13:50;;;;;;;;;42.00;35.00;;;;;15.47;70.73;101883.25;5076908;28;46436;-84
2021/09/21 04:19:38;;;;;;;;;48.00;37.50;;;;;15.47;70.98;101886.75;5076556;28;46065;-88
2021/09/21 04:22:03;;;;;;;;;45.75;37.25;;;;;15.51;70.76;101892.63;5076918;27;45862;-85
2021/09/21 04:24:28;;;;;;;;;47.00;38.25;;;;;15.50;70.76;101901.50;5076702;27;45872;-88
2021/09/21 04:26:54;;;;;;;;;50.50;38.00;;;;;15.43;70.90;101898.50;5076419;27;45851;-85
2021/09/21 04:29:19;;;;;;;;;50.25;40.00;;;;;15.47;70.42;101915.81;5076945;27;45700;-88
2021/09/21 04:35:06;;;;;;;;;28.75;24.50;;;;;15.41;70.57;101924.16;5075738;28;46037;-85
2021/09/21 04:37:32;;;;;;;;;48.00;38.50;;;;;15.40;70.70;101916.31;5076379;28;46059;-86
2021/09/21 04:39:57;;;;;;;;;47.00;37.50;;;;;15.33;70.64;101920.38;5075332;28;45797;-85
2021/09/21 04:42:25;;;;;;;;;49.75;41.00;;;;;15.34;70.45;101927.31;5077232;27;45569;-89
2021/09/21 04:44:50;;;;;;;;;48.00;39.50;;;;;15.21;70.56;101908.00;5076434;27;47204;-89
2021/09/21 04:47:16;;;;;;;;;46.00;37.50;;;;;15.28;70.79;101918.03;5077428;27;45910;-89
2021/09/21 04:49:42;;;;;;;;;49.50;40.25;;;;;15.28;70.87;101933.03;5078201;27;45783;-87
2021/09/21 04:52:07;;;;;;;;;49.50;41.00;;;;;15.26;70.79;101927.88;5077865;27;45554;-88
2021/09/21 04:54:33;;;;;;;;;52.50;40.75;;;;;15.22;70.35;101920.28;5077545;27;45644;-85
2021/09/21 04:56:58;;;;;;;;;44.75;35.50;;;;;15.23;70.50;101927.22;5079785;27;46259;-88
2021/09/21 04:59:23;;;;;;;;;50.25;40.75;;;;;15.20;70.25;101925.66;5079668;27;45736;-88
2021/09/21 05:05:10;;;;;;;;;50.00;38.75;;;;;15.12;70.56;101922.69;5077782;28;45570;-83
2021/09/21 05:07:36;;;;;;;;;45.25;37.50;;;;;15.11;70.78;101931.56;5077272;27;46137;-85
2021/09/21 05:10:03;;;;;;;;;51.50;40.50;;;;;15.13;70.68;101927.00;5077008;27;45965;-83
2021/09/21 05:12:28;;;;;;;;;49.00;40.25;;;;;15.12;70.75;101923.53;5074703;28;45581;-84
2021/09/21 05:14:53;;;;;;;;;47.00;37.75;;;;;15.11;70.70;101926.28;5074398;27;47162;-86
2021/09/21 05:20:41;;;;;;;;;52.25;41.00;;;;;15.07;70.78;101930.06;5078014;28;46193;-83
2021/09/21 05:23:06;;;;;;;;;47.75;39.25;;;;;15.03;70.75;101934.72;5078996;27;45715;-81
2021/09/21 05:25:31;;;;;;;;;47.25;37.50;;;;;15.00;70.87;101919.13;5079106;28;46309;-84
2021/09/21 05:27:57;;;;;;;;;41.25;35.00;;;;;14.88;70.34;101901.47;5076651;27;46956;-81
2021/09/21 05:30:22;;;;;;;;;48.00;38.50;;;;;14.94;70.38;101923.97;5078426;27;45676;-86
2021/09/21 05:32:47;;;;;;;;;47.50;38.25;;;;;14.89;70.20;101928.72;5077354;27;45640;-85
2021/09/21 05:35:13;;;;;;;;;46.50;36.75;;;;;14.89;69.92;101945.38;5078371;27;46648;-88
2021/09/21 05:37:39;;;;;;;;;48.25;39.00;;;;;14.85;70.07;101951.81;5080171;27;46194;-87
2021/09/21 05:40:06;;;;;;;;;42.25;36.00;;;;;14.80;70.05;101953.91;5078587;27;45785;-82
2021/09/21 05:42:32;;;;;;;;;44.25;35.75;;;;;14.77;70.02;101959.41;5077764;27;45687;-88
2021/09/21 05:44:58;;;;;;;;;41.50;35.00;;;;;14.73;69.83;101971.13;5076052;27;45725;-83
2021/09/21 05:50:47;;;;;;;;;42.00;35.25;;;;;14.63;69.93;101972.66;5068782;28;45763;-82
2021/09/21 05:53:12;;;;;;;;;38.50;33.25;;;;;14.57;69.60;101976.56;5080085;27;45715;-85
2021/09/21 05:55:37;;;;;;;;;35.25;32.50;;;;;14.54;70.12;101978.53;5077540;27;47122;-89
2021/09/21 05:58:03;;;;;;;;;42.50;34.25;;;;;14.51;70.29;101973.47;5077738;27;46022;-80
2021/09/21 06:00:28;;;;;;;;;41.75;35.75;;;;;14.48;69.96;101977.16;5080224;27;45648;-83
2021/09/21 06:02:54;;;;;;;;;42.00;36.00;;;;;14.34;70.43;101965.78;5079024;27;45708;-81
2021/09/21 06:05:20;;;;;;;;;39.75;33.25;;;;;14.39;69.86;101976.91;5079895;27;46793;-84
2021/09/21 06:07:48;;;;;;;;;41.25;33.75;;;;;14.43;69.95;101986.31;5081883;28;46026;-85
2021/09/21 06:10:14;;;;;;;;;40.50;33.50;;;;;14.32;70.50;101971.16;5082038;27;45655;-85
2021/09/21 06:12:39;;;;;;;;;37.75;32.75;;;;;14.34;69.84;101976.34;5078466;27;45727;-77
2021/09/21 06:15:06;;;;;;;;;38.75;34.25;;;;;14.33;70.07;101983.38;5076028;27;45863;-77
2021/09/21 06:20:53;;;;;;;;;36.25;30.25;;;;;14.29;69.74;101995.94;5073937;28;45823;-76
2021/09/21 06:23:19;;;;;;;;;40.50;33.50;;;;;14.25;69.63;101998.88;5074162;27;45697;-77
2021/09/21 06:25:45;;;;;;;;;35.75;30.25;;;;;14.26;69.41;102011.94;5073908;27;46747;-77
2021/09/21 06:28:10;;;;;;;;;34.75;30.00;;;;;14.24;69.69;102011.22;5073947;28;45628;-78
2021/09/21 06:30:36;;;;;;;;;30.75;29.25;;;;;14.22;69.71;102014.88;5072974;28;45765;-77
2021/09/21 06:36:23;;;;;;;;;31.00;28.25;;;;;14.20;69.63;102017.59;5073650;28;45653;-77
2021/09/21 06:38:48;;;;;;;;;35.75;33.25;;;;;14.13;69.53;102005.78;5073386;27;46583;-77
2021/09/21 06:41:13;;;;;;;;;35.50;29.00;;;;;14.12;69.43;102014.63;5074090;27;45651;-78
2021/09/21 06:43:39;;;;;;;;;35.00;29.00;;;;;14.17;68.79;102014.31;5073853;27;45608;-78
2021/09/21 06:46:04;;;;;;;;;30.50;26.75;;;;;14.15;68.85;102024.09;5073894;27;46266;-78
2021/09/21 06:48:30;;;;;;;;;28.75;26.75;;;;;14.17;69.13;102035.41;5073814;27;46326;-77
2021/09/21 06:50:55;;;;;;;;;29.25;27.75;;;;;14.10;69.04;102042.00;5073769;27;45836;-77
2021/09/21 06:53:21;;;;;;;;;29.75;26.50;;;;;14.12;69.24;102043.59;5073675;28;45815;-78
2021/09/21 06:55:47;;;;;;;;;24.75;24.25;;;;;14.14;68.95;102044.34;5073631;28;46548;-77
2021/09/21 06:58:14;;;;;;;;;27.50;23.00;;;;;14.08;68.54;102039.47;5073934;27;46070;-77
2021/09/21 07:00:41;;;;;;;;;27.50;25.25;;;;;14.05;68.22;102030.91;5073933;27;45530;-77
2021/09/21 07:06:28;;;;;;;;;25.25;22.25;;;;;14.15;68.29;102059.22;5073047;28;46268;-75
2021/09/21 07:08:53;;;;;;;;;28.50;26.75;;;;;14.15;67.93;102056.56;5073575;27;46115;-77
2021/09/21 07:11:20;;;;;;;;;30.25;25.75;;;;;14.14;67.22;102057.50;5073077;27;46155;-77
2021/09/21 07:13:46;;;;;;;;;27.00;25.00;;;;;14.10;67.29;102063.94;5073869;27;45767;-79
2021/09/21 07:16:11;;;;;;;;;25.00;23.00;;;;;14.10;67.63;102069.19;5073113;27;47247;-78
2021/09/21 07:18:36;;;;;;;;;25.25;23.00;;;;;14.13;67.16;102084.00;5073152;27;46018;-76
2021/09/21 07:21:02;;;;;;;;;26.75;25.75;;;;;14.14;67.54;102083.06;5073152;27;45658;-77
2021/09/21 07:23:27;;;;;;;;;23.00;21.50;;;;;14.14;67.16;102089.16;5073363;27;45712;-77
2021/09/21 07:25:53;;;;;;;;;29.00;23.75;;;;;14.15;67.52;102090.84;5073050;27;47423;-77
2021/09/21 07:28:18;;;;;;;;;25.00;23.00;;;;;14.18;67.41;102087.19;5072789;27;46048;-77
2021/09/21 07:30:44;;;;;;;;;23.50;22.25;;;;;14.21;67.45;102092.25;5073060;27;45763;-76
2021/09/21 07:36:32;;;;;;;;;26.75;22.75;;;;;14.22;66.82;102092.16;5072370;28;46057;-77
2021/09/21 07:38:58;;;;;;;;;26.50;23.75;;;;;14.28;66.98;102101.47;5071030;28;46385;-78
2021/09/21 07:41:24;;;;;;;;;20.25;18.75;;;;;14.29;66.72;102097.91;5073008;28;45759;-78
2021/09/21 07:43:49;;;;;;;;;21.25;18.00;;;;;14.29;66.79;102098.75;5072956;27;45828;-77
2021/09/21 07:46:16;;;;;;;;;21.75;19.25;;;;;14.28;66.34;102104.13;5072730;27;45740;-77
2021/09/21 07:48:42;;;;;;;;;20.75;19.00;;;;;14.16;66.19;102075.88;5072680;27;46208;-77
2021/09/21 07:51:08;;;;;;;;;17.50;17.50;;;;;14.36;65.77;102101.81;5074500;28;45707;-76
2021/09/21 07:53:33;;;;;;;;;23.50;20.75;;;;;14.39;65.89;102111.38;5076350;27;45762;-77
2021/09/21 07:55:59;;;;;;;;;22.00;18.00;;;;;14.41;66.35;102109.50;5076037;28;46187;-77
2021/09/21 07:58:24;;;;;;;;;19.00;17.50;;;;;14.43;65.29;102107.59;5076377;27;46270;-77
2021/09/21 08:00:53;;;;;;;;;16.75;15.75;;;;;14.45;65.06;102113.63;5076580;27;45711;-77
2021/09/21 08:06:40;;;;;;;;;15.50;15.50;;;;;14.39;65.47;102099.06;5075876;28;45700;-77
2021/09/21 08:09:06;;;;;;;;;17.50;15.25;;;;;14.48;64.66;102119.56;5076403;27;46168;-77
2021/09/21 08:11:31;;;;;;;;;16.25;14.25;;;;;14.53;64.50;102103.44;5076243;28;45728;-77
2021/09/21 08:13:56;;;;;;;;;16.50;15.00;;;;;14.46;65.19;102094.25;5075889;27;45905;-78
2021/09/21 08:16:22;;;;;;;;;13.00;11.50;;;;;14.58;64.63;102109.25;5075711;27;46200;-77
2021/09/21 08:18:47;;;;;;;;;13.25;12.75;;;;;14.62;63.79;102116.91;5075807;27;46320;-77
2021/09/21 08:21:13;;;;;;;;;13.75;13.50;;;;;14.56;63.78;102101.47;5075915;27;45867;-77
2021/09/21 08:23:38;;;;;;;;;20.00;15.25;;;;;14.66;64.44;102115.75;5076780;27;45600;-77
2021/09/21 08:26:04;;;;;;;;;16.00;14.00;;;;;14.69;64.27;102110.28;5076559;27;46335;-78
2021/09/21 08:28:29;;;;;;;;;14.75;12.00;;;;;14.67;63.79;102104.28;5076827;27;46323;-75
2021/09/21 08:30:55;;;;;;;;;13.75;13.00;;;;;14.63;63.96;102099.25;5077084;27;45697;-78
2021/09/21 08:36:42;;;;;;;;;14.00;13.25;;;;;14.86;64.23;102124.16;5075645;28;45964;-77
2021/09/21 08:39:08;;;;;;;;;15.50;12.25;;;;;14.78;63.64;102114.13;5075396;27;47226;-75
2021/09/21 08:41:33;;;;;;;;;13.00;13.00;;;;;14.97;63.82;102129.59;5075730;27;45640;-77
2021/09/21 08:43:59;;;;;;;;;14.75;12.75;;;;;14.99;63.32;102133.84;5075902;27;45792;-77
2021/09/21 08:46:25;;;;;;;;;11.75;10.75;;;;;15.02;62.99;102135.44;5075484;27;45734;-77
2021/09/21 08:48:50;;;;;;;;;11.50;10.75;;;;;15.01;62.70;102146.94;5075344;27;46396;-77
2021/09/21 08:51:17;;;;;;;;;14.75;14.50;;;;;15.02;61.61;102138.91;5075548;27;45783;-75
2021/09/21 08:53:42;;;;;;;;;17.00;16.00;;;;;15.01;61.81;102136.38;5075525;27;45798;-77
2021/09/21 08:56:09;;;;;;;;;14.75;13.75;;;;;14.97;62.16;102134.88;5075129;27;46363;-77
2021/09/21 08:58:35;;;;;;;;;12.75;11.75;;;;;15.08;62.41;102150.88;5075332;27;46191;-78
2021/09/21 09:07:51;;;;;;;;;14.00;13.00;;;;;15.18;62.38;102144.03;5072345;28;46219;-77
2021/09/21 09:10:18;;;;;;;;;13.50;12.75;;;;;15.22;62.04;102148.19;5072748;28;45614;-77
2021/09/21 09:12:45;;;;;;;;;13.00;12.25;;;;;15.23;61.00;102141.94;5071841;28;45806;-77
2021/09/21 09:15:19;;;;;;;;;13.25;11.50;;;;;15.28;61.61;102145.13;5071799;28;45664;-77
2021/09/21 09:17:56;;;;;;;;;12.75;11.25;;;;;15.28;61.44;102133.69;5072128;28;45791;-78
2021/09/21 09:20:40;;;;;;;;;14.75;12.00;;;;;15.36;61.87;102147.25;5072435;28;46309;-78
2021/09/21 09:23:07;;;;;;;;;12.75;12.75;;;;;15.39;61.61;102145.25;5071899;28;45764;-78
2021/09/21 09:25:47;;;;;;;;;14.25;13.25;;;;;15.44;61.98;102148.44;5072398;28;45606;-76
2021/09/21 09:28:23;;;;;;;;;10.75;9.75;;;;;15.45;62.05;102142.19;5072097;28;46938;-77
2021/09/21 09:30:50;;;;;;;;;10.00;9.50;;;;;15.52;61.46;102148.81;5072312;28;46229;-77
2021/09/21 09:33:16;;;;;;;;;15.25;12.25;;;;;15.52;61.48;102148.81;5072242;28;45855;-77
2021/09/21 09:35:44;;;;;;;;;13.00;12.00;;;;;15.53;61.54;102133.81;5072520;28;45900;-77
2021/09/21 09:38:12;;;;;;;;;13.50;11.75;;;;;15.63;61.51;102156.00;5072132;28;46586;-77
2021/09/21 09:40:49;;;;;;;;;13.50;11.75;;;;;15.66;61.57;102163.72;5073839;28;45779;-77
2021/09/21 09:43:18;;;;;;;;;18.75;17.50;;;;;15.64;60.90;102149.78;5074561;27;45680;-77
2021/09/21 09:45:47;;;;;;;;;13.75;13.75;;;;;15.76;61.36;102159.50;5074774;27;45576;-76
2021/09/21 09:48:15;;;;;;;;;15.00;13.75;;;;;15.80;61.24;102155.72;5073063;28;47994;-76
2021/09/21 09:50:42;;;;;;;;;14.25;13.25;;;;;15.75;61.49;102136.69;5074467;27;46173;-78
2021/09/21 09:53:28;;;;;;;;;14.25;13.75;;;;;15.80;60.98;102142.50;5074553;28;45835;-77
2021/09/21 09:55:57;;;;;;;;;15.75;13.50;;;;;15.89;61.05;102146.31;5074480;27;45998;-74
2021/09/21 09:58:24;;;;;;;;;17.25;14.75;;;;;15.99;60.56;102154.44;5074073;28;46562;-77
2021/09/21 10:00:54;;;;;;;;;17.25;15.00;;;;;16.01;60.47;102156.03;5074341;27;46414;-77
2021/09/21 10:03:19;;;;;;;;;14.75;14.50;;;;;16.05;60.33;102157.50;5074259;27;45821;-77
2021/09/21 10:05:45;;;;;;;;;17.50;17.00;;;;;16.08;60.43;102148.53;5074544;28;45545;-77
2021/09/21 10:08:11;;;;;;;;;17.00;15.25;;;;;16.10;59.00;102154.53;5073745;28;45840;-77
2021/09/21 10:10:39;;;;;;;;;19.00;18.00;;;;;16.09;59.42;102148.41;5074231;27;46116;-77
2021/09/21 10:13:13;;;;;;;;;19.50;18.75;;;;;16.11;58.59;102154.44;5073476;27;45634;-77
2021/09/21 10:15:40;;;;;;;;;19.50;17.50;;;;;16.14;59.56;102159.50;5074176;27;45956;-77
2021/09/21 10:18:23;;;;;;;;;19.25;18.00;;;;;16.16;59.09;102157.63;5074084;27;46267;-75
2021/09/21 10:21:01;;;;;;;;;21.00;18.00;;;;;16.18;59.19;102160.16;5074154;28;46179;-78
2021/09/21 10:23:32;;;;;;;;;22.25;19.50;;;;;16.23;58.44;102169.47;5073873;27;45751;-78
2021/09/21 10:26:11;;;;;;;;;23.00;18.00;;;;;16.23;59.52;102147.47;5073997;28;45677;-77
2021/09/21 10:28:40;;;;;;;;;21.50;18.50;;;;;16.29;58.72;102158.47;5073800;27;45789;-76
2021/09/21 10:31:14;;;;;;;;;21.00;18.25;;;;;16.35;59.07;102154.53;5074042;27;45872;-77
2021/09/21 10:33:39;;;;;;;;;23.25;20.75;;;;;16.39;59.06;102150.72;5073478;27;45648;-78
2021/09/21 10:36:18;;;;;;;;;16.50;16.50;;;;;16.45;59.37;102157.38;5074028;27;45774;-78
2021/09/21 10:38:53;;;;;;;;;19.25;17.00;;;;;16.50;58.59;102161.38;5074145;27;46593;-76
2021/09/21 10:41:19;;;;;;;;;19.00;19.00;;;;;16.53;59.33;102152.38;5073855;27;45864;-78
2021/09/21 10:43:45;;;;;;;;;25.00;22.00;;;;;16.58;58.44;102161.66;5074108;27;45778;-78
2021/09/21 10:46:22;;;;;;;;;21.75;18.75;;;;;16.51;58.88;102135.78;5075550;27;45996;-77
2021/09/21 10:48:48;;;;;;;;;22.25;21.25;;;;;16.65;59.14;102151.53;5079563;27;46684;-79
2021/09/21 10:51:13;;;;;;;;;20.25;19.00;;;;;16.72;59.67;102151.00;5076218;27;45573;-77
2021/09/21 10:53:40;;;;;;;;;20.00;19.75;;;;;16.76;58.70;102156.91;5076408;27;45605;-77
2021/09/21 10:56:14;;;;;;;;;24.75;21.25;;;;;16.81;58.59;102161.84;5076224;27;45689;-77
2021/09/21 10:58:51;;;;;;;;;22.00;21.25;;;;;16.85;58.93;102153.56;5073967;27;45558;-77
2021/09/21 11:01:16;;;;;;;;;23.00;21.00;;;;;16.90;58.80;102150.59;5073857;27;46057;-76
2021/09/21 11:03:42;;;;;;;;;23.75;21.00;;;;;16.93;58.85;102153.88;5073555;27;45521;-76
2021/09/21 11:06:08;;;;;;;;;20.75;20.00;;;;;16.98;59.22;102153.53;5073777;27;45566;-76
2021/09/21 11:08:35;;;;;;;;;24.00;21.25;;;;;16.93;58.00;102140.63;5073492;27;45647;-76
2021/09/21 11:11:04;;;;;;;;;23.25;22.25;;;;;17.09;58.52;102153.59;5073539;27;46203;-76
2021/09/21 11:13:40;;;;;;;;;25.50;21.75;;;;;17.13;58.44;102147.94;5073070;27;45910;-78
2021/09/21 11:16:09;;;;;;;;;21.75;20.00;;;;;17.19;57.96;102141.34;5073685;27;45527;-76
2021/09/21 11:18:36;;;;;;;;;24.00;21.75;;;;;17.19;58.07;102130.75;5073556;27;45641;-77
2021/09/21 11:21:04;;;;;;;;;24.25;22.50;;;;;17.32;58.09;102142.16;5073566;27;46601;-78
2021/09/21 11:23:33;;;;;;;;;25.00;22.25;;;;;17.41;58.02;102137.94;5073257;27;45794;-75
2021/09/21 11:26:03;;;;;;;;;22.50;20.50;;;;;17.47;57.86;102132.19;5075022;27;45633;-77
2021/09/21 11:28:30;;;;;;;;;29.50;27.00;;;;;17.49;56.96;102124.97;5076794;27;45612;-77
2021/09/21 11:30:57;;;;;;;;;24.50;21.00;;;;;17.56;56.60;102134.13;5076773;28;45622;-77
2021/09/21 11:33:29;;;;;;;;;25.00;24.25;;;;;17.58;57.54;102137.53;5076730;27;45807;-77
2021/09/21 11:35:59;;;;;;;;;20.25;19.00;;;;;17.66;57.47;102132.50;5076602;27;45664;-78
2021/09/21 11:38:29;;;;;;;;;22.25;22.00;;;;;17.72;57.10;102145.28;5076890;27;45768;-75
2021/09/21 11:40:54;;;;;;;;;23.75;21.75;;;;;17.76;56.89;102130.81;5076852;27;45955;-78
2021/09/21 11:43:20;;;;;;;;;25.00;22.25;;;;;17.78;56.52;102133.38;5076585;27;45609;-77
2021/09/21 11:45:48;;;;;;;;;22.00;19.75;;;;;17.88;56.87;102139.66;5076675;27;45891;-78
2021/09/21 11:48:14;;;;;;;;;22.75;19.50;;;;;17.91;56.24;102134.13;5076614;27;46208;-77
2021/09/21 11:50:41;;;;;;;;;23.50;21.50;;;;;17.95;56.50;102141.72;5076375;27;46378;-78
2021/09/21 11:53:09;;;;;;;;;21.75;20.00;;;;;18.00;56.46;102144.84;5076356;27;45803;-78
2021/09/21 11:55:37;;;;;;;;;19.25;19.25;;;;;18.06;56.23;102143.53;5076868;27;45565;-75
2021/09/21 11:58:05;;;;;;;;;27.25;22.75;;;;;18.04;56.50;102127.72;5076548;27;46550;-77
2021/09/21 12:00:53;;;;;;;;;24.00;21.00;;;;;18.18;56.12;102131.97;5076336;27;46191;-77
2021/09/21 12:03:22;;;;;;;;;20.25;19.75;;;;;18.16;56.97;102117.97;5076240;27;45630;-78
2021/09/21 12:05:51;;;;;;;;;24.75;21.75;;;;;18.29;56.04;102124.00;5076583;27;45597;-77
2021/09/21 12:08:19;;;;;;;;;21.00;19.25;;;;;18.35;55.79;102133.28;5076250;27;45732;-77
2021/09/21 12:10:52;;;;;;;;;21.75;19.75;;;;;18.39;55.44;102126.75;5076412;27;46098;-77
2021/09/21 12:13:20;;;;;;;;;24.50;22.50;;;;;18.40;56.58;102131.13;5075882;27;45662;-76
2021/09/21 12:15:53;;;;;;;;;20.50;19.25;;;;;18.49;56.49;102140.97;5076316;27;45662;-77
2021/09/21 12:18:20;;;;;;;;;22.00;20.50;;;;;18.50;56.19;102128.56;5076170;27;45795;-77
2021/09/21 12:20:53;;;;;;;;;21.50;16.50;;;;;18.58;55.83;102131.47;5076381;28;46374;-78
2021/09/21 12:23:22;;;;;;;;;21.25;20.25;;;;;18.61;55.93;102128.56;5075919;27;45828;-78
2021/09/21 12:25:51;;;;;;;;;22.25;20.50;;;;;18.64;56.12;102133.63;5076301;27;45870;-77
2021/09/21 12:28:23;;;;;;;;;24.25;22.50;;;;;18.64;56.77;102129.16;5075875;27;46860;-77
2021/09/21 12:30:49;;;;;;;;;22.25;20.50;;;;;18.71;56.71;102134.81;5075849;27;46306;-77
2021/09/21 12:33:15;;;;;;;;;23.75;21.75;;;;;18.69;56.48;102129.63;5076439;27;45643;-76